Rupert, Arkansas
Current Conditions -  °F | °C
As of 8:55 PM on Wednesday 26 Nov 2014 (Local Time) from KCCA Reporting Station
Clear Clear  
Wind Chill: 41°   Ceiling: Unl
Heat Index: 45°   Visibility: 10mi
Dew Point: 27°   Wind: 7mph
Humidity: 49%   Direction: 300°WNW
Pressure: 30.21"   Gusts: NA
Location:  35.6269°N, 92.5508°W
Report Text: KCCA 270255Z AUTO 30006KT 10SM CLR 07/M03 A3021 RMK AO2
Loading
Personal Weather Stations






























Interactive Weather Map New forecast layout! Learn more

10-Day Weather Forecast

Advertisements
Track Severe Weather on mobile